createdAt,value
2018-10-19T00:01:33.756Z,12.43
2018-10-19T00:04:01.626Z,11.87
2018-10-19T00:06:29.483Z,13.90
2018-10-19T00:08:57.368Z,12.83
2018-10-19T00:11:25.436Z,13.57
2018-10-19T00:13:53.289Z,12.27
2018-10-19T00:16:21.087Z,12.10
2018-10-19T00:18:49.170Z,12.07
2018-10-19T00:21:16.982Z,13.80
2018-10-19T00:23:44.768Z,12.47
2018-10-19T00:26:12.815Z,12.33
2018-10-19T00:28:40.918Z,13.53
2018-10-19T00:31:08.799Z,13.13
2018-10-19T00:33:36.655Z,12.50
2018-10-19T00:36:04.827Z,11.47
2018-10-19T00:38:32.655Z,11.97
2018-10-19T00:41:00.467Z,11.50
2018-10-19T00:43:28.642Z,11.77
2018-10-19T00:49:06.724Z,12.60
2018-10-19T00:51:38.748Z,13.47
2018-10-19T00:54:06.772Z,11.10
2018-10-19T00:56:34.713Z,12.60
2018-10-19T00:59:02.925Z,12.70
2018-10-19T01:01:30.786Z,12.07
2018-10-19T01:03:58.638Z,12.53
2018-10-19T01:06:26.487Z,11.50
2018-10-19T01:08:54.580Z,14.37
2018-10-19T01:11:22.460Z,12.23
2018-10-19T01:13:50.398Z,12.70
2018-10-19T01:16:18.360Z,12.80
2018-10-19T01:18:46.232Z,12.63
2018-10-19T01:21:14.143Z,12.40
2018-10-19T01:23:41.993Z,12.47
2018-10-19T01:26:10.263Z,13.93
2018-10-19T01:28:38.090Z,11.10
2018-10-19T01:31:05.918Z,12.77
2018-10-19T01:33:33.715Z,11.13
2018-10-19T01:36:01.787Z,12.77
2018-10-19T01:38:29.632Z,13.30
2018-10-19T01:40:58.215Z,15.03
2018-10-19T01:43:26.167Z,12.27
2018-10-19T01:45:56.155Z,12.10
2018-10-19T01:48:24.419Z,13.63
2018-10-19T01:50:52.228Z,12.20
2018-10-19T01:53:20.096Z,10.93
2018-10-19T01:55:47.895Z,12.53
2018-10-19T01:58:15.901Z,12.83
2018-10-19T02:00:43.733Z,10.83
2018-10-19T02:03:11.693Z,12.50
2018-10-19T02:05:39.695Z,12.20
2018-10-19T02:08:08.830Z,13.23
2018-10-19T02:10:36.819Z,14.23
2018-10-19T02:13:05.446Z,13.43
2018-10-19T02:15:33.258Z,14.67
2018-10-19T02:18:01.257Z,12.40
2018-10-19T02:20:29.102Z,12.30
2018-10-19T02:22:57.020Z,10.60
2018-10-19T02:25:28.630Z,12.13
2018-10-19T02:27:56.643Z,13.03
2018-10-19T02:30:24.452Z,12.87
2018-10-19T02:32:52.269Z,12.47
2018-10-19T02:35:20.095Z,11.60
2018-10-19T02:37:48.043Z,11.67
2018-10-19T02:40:15.868Z,8.83
2018-10-19T02:42:43.843Z,8.10
2018-10-19T02:45:11.972Z,9.20
2018-10-19T02:47:39.917Z,9.00
2018-10-19T02:50:08.616Z,7.40
2018-10-19T02:52:37.031Z,7.13
2018-10-19T02:55:06.204Z,9.40
2018-10-19T02:57:33.991Z,7.10
2018-10-19T03:00:02.357Z,8.50
2018-10-19T03:02:30.184Z,7.33
2018-10-19T03:05:06.028Z,7.17
2018-10-19T03:07:37.121Z,6.53
2018-10-19T03:10:05.532Z,7.53
2018-10-19T03:12:33.419Z,6.87
2018-10-19T03:15:02.021Z,6.90
2018-10-19T03:17:30.088Z,7.27
2018-10-19T03:19:58.095Z,7.63
2018-10-19T03:22:26.069Z,8.50
2018-10-19T03:24:53.992Z,8.17
2018-10-19T03:27:21.861Z,8.20
2018-10-19T03:29:49.625Z,8.27
2018-10-19T03:32:17.451Z,8.00
2018-10-19T03:34:45.775Z,9.73
2018-10-19T03:37:13.593Z,12.37
2018-10-19T03:39:41.542Z,11.03
2018-10-19T03:42:09.335Z,12.87
2018-10-19T03:44:37.274Z,12.23
2018-10-19T03:47:05.492Z,13.37
2018-10-19T03:49:33.269Z,13.63
2018-10-19T03:52:01.158Z,12.83
2018-10-19T03:54:29.138Z,12.70
2018-10-19T03:56:57.082Z,11.10
2018-10-19T03:59:25.036Z,12.63
2018-10-19T04:01:53.006Z,13.30
2018-10-19T04:04:20.991Z,11.77
2018-10-19T04:06:48.984Z,11.80
2018-10-19T04:09:17.055Z,13.80
2018-10-19T04:11:47.639Z,12.43
2018-10-19T04:14:15.620Z,12.13
2018-10-19T04:16:43.655Z,11.07
2018-10-19T04:19:11.671Z,12.03
2018-10-19T04:21:39.667Z,8.63
2018-10-19T04:24:07.509Z,8.77
2018-10-19T04:26:35.903Z,7.83
2018-10-19T04:29:04.184Z,8.40
2018-10-19T04:31:32.051Z,7.30
2018-10-19T04:33:59.994Z,7.10
2018-10-19T04:36:27.947Z,7.53
2018-10-19T04:38:55.821Z,8.07
2018-10-19T04:41:23.716Z,8.00
2018-10-19T04:43:51.755Z,9.57
2018-10-19T04:46:19.683Z,10.70
2018-10-19T04:48:47.759Z,9.43
2018-10-19T04:51:15.921Z,8.93
2018-10-19T04:53:44.109Z,9.33
2018-10-19T04:56:11.903Z,10.07
2018-10-19T04:58:40.083Z,10.67
2018-10-19T05:01:07.974Z,11.07
2018-10-19T05:03:35.911Z,10.47
2018-10-19T05:06:04.016Z,13.03
2018-10-19T05:08:31.882Z,11.30
2018-10-19T05:10:59.746Z,11.50
2018-10-19T05:13:27.508Z,10.70
2018-10-19T05:15:55.309Z,9.30
2018-10-19T05:18:23.075Z,10.33
2018-10-19T05:20:51.070Z,10.97
2018-10-19T05:23:19.345Z,11.73
2018-10-19T05:25:47.046Z,11.57
2018-10-19T05:28:14.916Z,11.63
2018-10-19T05:30:42.919Z,11.13
2018-10-19T05:33:10.879Z,12.07
2018-10-19T05:35:38.840Z,11.90
2018-10-19T05:38:06.864Z,13.60
2018-10-19T05:40:34.623Z,11.27
2018-10-19T05:43:02.770Z,10.93
2018-10-19T05:45:30.662Z,12.90
2018-10-19T05:48:01.643Z,11.23
2018-10-19T05:50:29.428Z,11.40
2018-10-19T05:52:57.648Z,11.10
2018-10-19T05:55:25.394Z,11.77
2018-10-19T05:57:53.269Z,13.63
2018-10-19T06:00:21.154Z,12.40
2018-10-19T06:02:48.954Z,10.97
2018-10-19T06:05:17.046Z,11.20
2018-10-19T06:07:44.828Z,11.97
2018-10-19T06:10:12.931Z,11.37
2018-10-19T06:12:40.840Z,14.33
2018-10-19T06:15:09.162Z,11.53
2018-10-19T06:17:37.091Z,11.10
2018-10-19T06:20:05.558Z,11.73
2018-10-19T06:22:33.385Z,11.67
2018-10-19T06:25:01.218Z,12.17
2018-10-19T06:27:29.011Z,12.77
2018-10-19T06:29:56.992Z,12.07
2018-10-19T06:32:28.511Z,12.37
2018-10-19T06:34:56.387Z,11.20
2018-10-19T06:37:24.225Z,11.83
2018-10-19T06:39:52.128Z,11.33
2018-10-19T06:42:20.139Z,13.03
2018-10-19T06:44:47.976Z,11.50
2018-10-19T06:47:15.879Z,12.00
2018-10-19T06:49:43.657Z,11.27
2018-10-19T06:52:11.459Z,11.40
2018-10-19T06:54:39.231Z,10.80
2018-10-19T06:57:07.044Z,11.97
2018-10-19T06:59:35.301Z,12.13
2018-10-19T07:02:03.183Z,10.87
2018-10-19T07:04:30.975Z,10.70
2018-10-19T07:06:58.820Z,11.57
2018-10-19T07:09:26.623Z,12.57
2018-10-19T07:11:54.546Z,10.93
2018-10-19T07:14:22.403Z,11.03
2018-10-19T07:16:50.431Z,13.83
2018-10-19T07:19:18.240Z,12.33
2018-10-19T07:21:46.122Z,12.20
2018-10-19T07:24:14.075Z,10.33
2018-10-19T07:26:41.881Z,10.03
2018-10-19T07:29:09.933Z,9.47
2018-10-19T07:31:37.877Z,12.20
2018-10-19T07:34:05.738Z,10.87
2018-10-19T07:36:33.656Z,11.33
2018-10-19T07:39:01.378Z,11.07
2018-10-19T07:41:29.228Z,11.37
2018-10-19T07:43:57.143Z,12.07
2018-10-19T07:46:24.935Z,11.93
2018-10-19T07:48:52.839Z,11.03
2018-10-19T07:51:20.650Z,13.23
2018-10-19T07:53:48.566Z,12.80
2018-10-19T07:56:16.561Z,12.43
2018-10-19T07:58:44.319Z,10.73
2018-10-19T08:01:12.280Z,13.33
2018-10-19T08:03:40.170Z,11.53
2018-10-19T08:06:08.183Z,11.97
2018-10-19T08:08:36.156Z,10.63
2018-10-19T08:11:04.368Z,12.30
2018-10-19T08:13:37.861Z,11.47
2018-10-19T08:16:05.667Z,13.83
2018-10-19T08:18:33.722Z,13.37
2018-10-19T08:21:01.688Z,12.80
2018-10-19T08:23:29.516Z,12.37
2018-10-19T08:26:07.928Z,13.93
2018-10-19T08:28:35.745Z,11.30
2018-10-19T08:31:03.968Z,12.27
2018-10-19T08:33:32.591Z,12.13
2018-10-19T08:36:00.395Z,12.17
2018-10-19T08:38:28.228Z,13.23
2018-10-19T08:40:56.128Z,12.13
2018-10-19T08:43:23.954Z,11.67
2018-10-19T08:45:51.772Z,10.93
2018-10-19T08:48:19.667Z,11.93
2018-10-19T08:50:47.509Z,12.90
2018-10-19T08:53:15.410Z,12.27
2018-10-19T08:55:43.167Z,11.37
2018-10-19T08:58:11.072Z,12.93
2018-10-19T09:00:39.533Z,12.67
2018-10-19T09:03:07.357Z,11.63
2018-10-19T09:05:35.244Z,11.47
2018-10-19T09:08:03.107Z,11.93
2018-10-19T09:10:31.234Z,12.63
2018-10-19T09:12:59.253Z,12.93
2018-10-19T09:15:27.080Z,13.77
2018-10-19T09:17:54.960Z,14.13
2018-10-19T09:20:23.071Z,14.50
2018-10-19T09:22:52.254Z,13.43
2018-10-19T09:25:20.472Z,14.97
2018-10-19T09:27:48.440Z,15.53
2018-10-19T09:30:16.374Z,13.50
2018-10-19T09:32:44.305Z,14.83
2018-10-19T09:35:12.309Z,15.13
2018-10-19T09:37:40.028Z,14.80
2018-10-19T09:40:08.145Z,12.07
2018-10-19T09:42:36.115Z,15.87
2018-10-19T09:45:05.180Z,14.27
2018-10-19T09:47:33.541Z,16.30
2018-10-19T09:50:01.421Z,15.23
2018-10-19T09:52:29.808Z,16.23
2018-10-19T09:55:00.919Z,17.00
2018-10-19T09:57:28.827Z,15.97
2018-10-19T09:59:56.634Z,18.23
2018-10-19T10:02:24.544Z,17.97
2018-10-19T10:04:52.459Z,16.63
2018-10-19T10:07:20.244Z,16.70
2018-10-19T10:09:48.085Z,16.73
2018-10-19T10:12:16.003Z,14.47
2018-10-19T10:14:43.888Z,15.07
2018-10-19T10:17:11.761Z,17.07
2018-10-19T10:19:39.887Z,16.63
2018-10-19T10:22:07.825Z,19.27
2018-10-19T10:24:35.685Z,14.70
2018-10-19T10:27:03.500Z,14.30
2018-10-19T10:29:31.399Z,13.47
2018-10-19T10:31:59.445Z,14.23
2018-10-19T10:34:27.900Z,16.57
2018-10-19T10:36:55.825Z,16.67
2018-10-19T10:39:23.925Z,15.07
2018-10-19T10:41:51.962Z,14.13
2018-10-19T10:44:19.867Z,14.67
2018-10-19T10:46:47.837Z,15.63
2018-10-19T10:49:15.983Z,16.43
2018-10-19T10:51:43.917Z,14.83
2018-10-19T10:54:11.881Z,16.23
2018-10-19T10:56:39.709Z,15.27
2018-10-19T10:59:07.901Z,17.47
2018-10-19T11:01:35.771Z,17.70
2018-10-19T11:04:03.664Z,16.73
2018-10-19T11:06:31.479Z,16.73
2018-10-19T11:08:59.411Z,16.30
2018-10-19T11:11:27.250Z,15.30
2018-10-19T11:13:55.411Z,16.50
2018-10-19T11:16:23.271Z,17.43
2018-10-19T11:18:51.066Z,16.07
2018-10-19T11:21:18.926Z,15.67
2018-10-19T11:23:46.734Z,16.93
2018-10-19T11:26:14.617Z,18.90
2018-10-19T11:28:42.423Z,18.93
2018-10-19T11:31:10.258Z,17.27
2018-10-19T11:33:42.119Z,20.00
2018-10-19T11:36:09.970Z,18.43
2018-10-19T11:38:37.817Z,19.60
2018-10-19T11:41:05.644Z,17.70
2018-10-19T11:43:33.820Z,17.93
2018-10-19T11:46:01.665Z,17.97
2018-10-19T11:48:29.469Z,20.23
2018-10-19T11:50:57.317Z,17.53
2018-10-19T11:53:25.188Z,17.33
2018-10-19T11:55:53.050Z,18.00
2018-10-19T11:58:20.869Z,19.07
2018-10-19T12:00:48.764Z,17.83
2018-10-19T12:03:16.587Z,18.67
2018-10-19T12:05:44.435Z,18.63
2018-10-19T12:08:12.239Z,18.13
2018-10-19T12:10:40.111Z,18.30
2018-10-19T12:13:07.976Z,16.70
2018-10-19T12:15:36.007Z,17.13
2018-10-19T12:18:03.983Z,17.73
2018-10-19T12:20:31.883Z,19.40
2018-10-19T12:22:59.680Z,18.57
2018-10-19T12:25:27.517Z,17.60
2018-10-19T12:27:55.334Z,18.17
2018-10-19T12:30:23.122Z,17.57
2018-10-19T12:32:51.499Z,17.60
2018-10-19T12:35:23.297Z,24.10
2018-10-19T12:37:51.109Z,18.03
2018-10-19T12:40:19.517Z,18.77
2018-10-19T12:42:47.545Z,18.17
2018-10-19T12:47:16.899Z,18.03
2018-10-19T12:49:45.019Z,15.17
2018-10-19T12:52:12.887Z,16.83
2018-10-19T12:54:40.888Z,17.30
2018-10-19T12:57:08.894Z,17.77
2018-10-19T12:59:36.907Z,18.37
2018-10-19T13:02:09.365Z,19.97
2018-10-19T13:04:37.399Z,19.00
2018-10-19T13:07:06.206Z,18.33
2018-10-19T13:09:34.165Z,18.87
2018-10-19T13:12:02.486Z,17.63
2018-10-19T13:14:30.362Z,19.00
2018-10-19T13:16:58.214Z,18.37
2018-10-19T13:19:26.033Z,18.20
2018-10-19T13:21:54.194Z,16.97
2018-10-19T13:24:22.062Z,18.33
2018-10-19T13:26:51.461Z,18.23
2018-10-19T13:29:19.710Z,18.67
2018-10-19T13:31:47.545Z,18.73
2018-10-19T13:34:15.452Z,18.20
2018-10-19T13:36:43.363Z,18.97
2018-10-19T13:39:12.466Z,16.63
2018-10-19T13:41:40.548Z,17.83
2018-10-19T13:44:11.635Z,18.87
2018-10-19T13:46:39.431Z,19.27
2018-10-19T13:49:07.294Z,18.57
2018-10-19T13:51:35.595Z,19.77
2018-10-19T13:54:03.819Z,19.70
2018-10-19T13:56:31.968Z,19.10
2018-10-19T13:59:00.034Z,18.90
2018-10-19T14:01:27.807Z,17.90
2018-10-19T14:03:55.609Z,18.33
2018-10-19T14:06:23.476Z,17.50
2018-10-19T14:08:51.319Z,20.00
2018-10-19T14:11:19.257Z,17.20
2018-10-19T14:13:47.072Z,16.67
2018-10-19T14:16:14.971Z,16.60
2018-10-19T14:18:42.898Z,18.00
2018-10-19T14:21:10.783Z,17.93
2018-10-19T14:23:38.507Z,18.57
2018-10-19T14:26:06.346Z,18.43
2018-10-19T14:28:34.133Z,19.97
2018-10-19T14:31:02.195Z,17.07
2018-10-19T14:33:30.136Z,17.73
2018-10-19T14:35:57.900Z,16.90
2018-10-19T14:38:25.719Z,16.67
2018-10-19T14:40:53.505Z,17.80
2018-10-19T14:43:21.371Z,16.47
2018-10-19T14:45:49.163Z,18.50
2018-10-19T14:48:17.019Z,17.87
2018-10-19T14:50:48.333Z,18.63
2018-10-19T14:53:16.194Z,16.93
2018-10-19T14:55:43.951Z,18.50
2018-10-19T14:58:14.309Z,16.97
2018-10-19T15:00:42.386Z,17.93
2018-10-19T15:03:12.342Z,17.27
2018-10-19T15:05:42.197Z,18.10
2018-10-19T15:08:09.999Z,18.33
2018-10-19T15:10:38.032Z,16.40
2018-10-19T15:13:05.604Z,17.87
2018-10-19T15:15:33.350Z,17.17
2018-10-19T15:18:01.246Z,18.43
2018-10-19T15:20:29.011Z,17.23
2018-10-19T15:22:56.903Z,16.97
2018-10-19T15:25:24.675Z,17.33
2018-10-19T15:27:52.445Z,19.80
2018-10-19T15:30:20.328Z,16.87
2018-10-19T15:32:48.041Z,17.17
2018-10-19T15:35:15.823Z,17.63
2018-10-19T15:37:43.673Z,16.40
2018-10-19T15:40:11.770Z,17.27
2018-10-19T15:42:39.759Z,16.10
2018-10-19T15:45:10.450Z,18.80
2018-10-19T15:47:38.439Z,15.43
2018-10-19T15:50:07.207Z,19.27
2018-10-19T15:52:35.134Z,15.83
2018-10-19T15:55:04.911Z,15.80
2018-10-19T15:57:32.715Z,15.90
2018-10-19T16:00:00.920Z,17.97
2018-10-19T16:02:32.263Z,16.87
2018-10-19T16:05:00.334Z,15.97
2018-10-19T16:07:28.284Z,14.73
2018-10-19T16:09:56.108Z,16.10
2018-10-19T16:12:23.895Z,19.13
2018-10-19T16:14:52.066Z,17.40
2018-10-19T16:17:19.824Z,15.33
2018-10-19T16:19:47.594Z,16.13
2018-10-19T16:22:15.664Z,14.63
2018-10-19T16:24:43.454Z,14.50
2018-10-19T16:27:11.307Z,13.37
2018-10-19T16:29:39.019Z,14.33
2018-10-19T16:32:06.826Z,14.87
2018-10-19T16:34:34.721Z,14.77
2018-10-19T16:37:02.952Z,13.73
2018-10-19T16:39:30.924Z,13.83
2018-10-19T16:41:58.881Z,13.73
2018-10-19T16:44:26.646Z,14.67
2018-10-19T16:46:54.440Z,17.83
2018-10-19T16:49:22.234Z,14.60
2018-10-19T16:51:50.137Z,18.40
2018-10-19T16:54:17.989Z,17.20
2018-10-19T16:56:45.860Z,17.20
2018-10-19T16:59:13.652Z,16.60
2018-10-19T17:01:41.507Z,15.50
2018-10-19T17:04:13.386Z,17.27
2018-10-19T17:06:41.171Z,19.67
2018-10-19T17:09:11.492Z,15.20
2018-10-19T17:11:39.502Z,16.63
2018-10-19T17:14:07.314Z,18.90
2018-10-19T17:16:35.397Z,17.07
2018-10-19T17:19:03.291Z,16.03
2018-10-19T17:21:31.171Z,16.77
2018-10-19T17:23:59.070Z,16.23
2018-10-19T17:26:27.664Z,14.60
2018-10-19T17:28:55.602Z,15.30
2018-10-19T17:31:23.404Z,16.23
2018-10-19T17:33:51.452Z,13.70
2018-10-19T17:36:19.168Z,16.73
2018-10-19T17:38:47.367Z,24.13
2018-10-19T17:41:15.548Z,24.33
2018-10-19T17:43:43.382Z,27.10
2018-10-19T17:46:11.127Z,22.90
2018-10-19T17:48:38.995Z,20.27
2018-10-19T17:51:06.872Z,16.10
2018-10-19T17:53:34.753Z,15.87
2018-10-19T17:56:02.792Z,12.50
2018-10-19T17:58:30.642Z,13.93
2018-10-19T18:00:58.557Z,13.90
2018-10-19T18:03:26.416Z,13.07
2018-10-19T18:05:55.131Z,12.63
2018-10-19T18:08:22.943Z,13.20
2018-10-19T18:10:50.846Z,15.27
2018-10-19T18:13:18.723Z,13.70
2018-10-19T18:15:46.659Z,14.43
2018-10-19T18:18:14.384Z,13.73
2018-10-19T18:20:42.255Z,12.93
2018-10-19T18:23:10.346Z,13.73
2018-10-19T18:25:38.187Z,12.60
2018-10-19T18:28:06.006Z,13.40
2018-10-19T18:30:33.836Z,13.33
2018-10-19T18:33:01.695Z,12.17
2018-10-19T18:35:29.673Z,13.77
2018-10-19T18:37:57.741Z,12.67
2018-10-19T18:40:25.603Z,13.93
2018-10-19T18:42:53.365Z,13.20
2018-10-19T18:45:21.314Z,13.90
2018-10-19T18:47:49.117Z,11.77
2018-10-19T18:50:17.009Z,12.37
2018-10-19T18:52:44.807Z,12.97
2018-10-19T18:55:12.625Z,12.20
2018-10-19T18:57:40.462Z,13.83
2018-10-19T19:00:10.236Z,12.57
2018-10-19T19:02:38.215Z,12.23
2018-10-19T19:05:06.093Z,12.80
2018-10-19T19:07:37.791Z,11.83
2018-10-19T19:10:12.080Z,10.93
2018-10-19T19:12:39.933Z,10.97
2018-10-19T19:15:08.313Z,11.40
2018-10-19T19:17:37.342Z,11.37
2018-10-19T19:20:12.454Z,10.03
2018-10-19T19:22:40.840Z,11.13
2018-10-19T19:25:14.682Z,11.33
2018-10-19T19:27:42.646Z,10.40
2018-10-19T19:30:10.507Z,11.17
2018-10-19T19:32:43.050Z,10.77
2018-10-19T19:35:10.891Z,11.50
2018-10-19T19:37:38.866Z,11.00
2018-10-19T19:40:06.739Z,11.17
2018-10-19T19:42:40.283Z,10.43
2018-10-19T19:45:08.091Z,10.10
2018-10-19T19:47:41.739Z,11.27
2018-10-19T19:50:09.610Z,11.40
2018-10-19T19:52:37.431Z,12.23
2018-10-19T19:55:05.772Z,10.20
2018-10-19T19:57:33.596Z,11.60
2018-10-19T20:00:01.809Z,10.70
2018-10-19T20:02:29.768Z,11.43
2018-10-19T20:04:57.600Z,11.37
2018-10-19T20:07:25.835Z,12.70
2018-10-19T20:09:53.646Z,11.43
2018-10-19T20:12:21.572Z,11.30
2018-10-19T20:14:49.297Z,12.63
2018-10-19T20:17:17.074Z,11.77
2018-10-19T20:19:44.903Z,12.10
2018-10-19T20:22:12.732Z,13.30
2018-10-19T20:24:40.548Z,13.73
2018-10-19T20:27:08.356Z,11.70
2018-10-19T20:29:36.274Z,12.73
2018-10-19T20:32:04.236Z,10.70
2018-10-19T20:34:32.044Z,11.20
2018-10-19T20:36:59.959Z,10.70
2018-10-19T20:39:27.779Z,12.53
2018-10-19T20:41:55.580Z,10.80
2018-10-19T20:44:23.399Z,10.67
2018-10-19T20:46:51.204Z,10.53
2018-10-19T20:49:19.031Z,10.83
2018-10-19T20:51:47.131Z,10.00
2018-10-19T20:54:15.129Z,11.37
2018-10-19T20:56:43.006Z,12.03
2018-10-19T20:59:10.792Z,11.13
2018-10-19T21:01:39.632Z,11.47
2018-10-19T21:04:07.407Z,11.80
2018-10-19T21:06:35.247Z,11.33
2018-10-19T21:09:04.517Z,11.27
2018-10-19T21:11:32.312Z,10.93
2018-10-19T21:14:00.151Z,10.93
2018-10-19T21:16:28.376Z,11.07
2018-10-19T21:18:56.251Z,10.87
2018-10-19T21:21:23.988Z,10.33
2018-10-19T21:23:51.776Z,10.00
2018-10-19T21:26:21.059Z,10.70
2018-10-19T21:28:48.936Z,9.07
2018-10-19T21:31:16.751Z,9.30
2018-10-19T21:33:44.648Z,8.63
2018-10-19T21:36:12.509Z,10.10
2018-10-19T21:38:40.227Z,9.27
2018-10-19T21:41:08.261Z,9.53
2018-10-19T21:43:36.029Z,10.67
2018-10-19T21:46:03.858Z,10.83
2018-10-19T21:48:31.666Z,9.30
2018-10-19T21:50:59.571Z,10.90
2018-10-19T21:53:27.409Z,9.90
2018-10-19T21:55:55.214Z,10.63
2018-10-19T21:58:22.999Z,10.07
2018-10-19T22:00:50.791Z,9.57
2018-10-19T22:03:18.602Z,9.87
2018-10-19T22:05:46.419Z,11.17
2018-10-19T22:08:14.297Z,10.43
2018-10-19T22:10:42.114Z,9.43
2018-10-19T22:13:09.922Z,9.77
2018-10-19T22:15:38.456Z,9.90
2018-10-19T22:18:06.339Z,10.33
2018-10-19T22:20:34.216Z,9.80
2018-10-19T22:23:02.302Z,11.63
2018-10-19T22:25:30.056Z,10.13
2018-10-19T22:27:57.981Z,9.80
2018-10-19T22:30:25.795Z,9.00
2018-10-19T22:32:53.607Z,9.90
2018-10-19T22:35:22.000Z,9.47
2018-10-19T22:37:50.272Z,11.00
2018-10-19T22:40:18.160Z,10.40
2018-10-19T22:42:45.959Z,10.47
2018-10-19T22:45:13.868Z,10.57
2018-10-19T22:47:41.699Z,10.37
2018-10-19T22:50:09.513Z,10.43
2018-10-19T22:52:37.367Z,10.17
2018-10-19T22:55:05.587Z,9.57
2018-10-19T22:57:33.441Z,9.67
2018-10-19T23:00:01.251Z,9.10
2018-10-19T23:02:29.464Z,9.50
2018-10-19T23:04:57.307Z,9.67
2018-10-19T23:07:25.133Z,11.67
2018-10-19T23:09:52.972Z,9.87
2018-10-19T23:12:24.568Z,9.63
2018-10-19T23:14:52.399Z,9.37
2018-10-19T23:17:20.244Z,9.63
2018-10-19T23:19:48.055Z,9.33
2018-10-19T23:22:15.845Z,8.97
2018-10-19T23:24:43.704Z,9.67
2018-10-19T23:27:11.631Z,9.77
2018-10-19T23:29:39.931Z,10.47
2018-10-19T23:32:07.841Z,10.70
2018-10-19T23:34:35.758Z,9.73
2018-10-19T23:37:03.705Z,9.30
2018-10-19T23:39:31.405Z,9.47
2018-10-19T23:41:59.199Z,10.23
2018-10-19T23:44:26.992Z,10.00
2018-10-19T23:46:54.833Z,9.73
2018-10-19T23:49:22.555Z,9.03
2018-10-19T23:51:50.356Z,10.20
2018-10-19T23:54:18.173Z,11.53
2018-10-19T23:56:45.943Z,10.70
2018-10-19T23:59:13.796Z,10.53
